Latest Coastal Weather Observations for Maningrida Airport

IDD60701

Issued at 8:11 am CST Sunday 1 February 2015 (issued every 10 minutes, with the page automatically refreshed every 10 minutes)

About coastal observations | Map of coastal stations | Coastal observations for NT | Marine services | Other Formats
Station Details ID: 014405 Name: MANINGRIDA AIRPORT Lat: -12.06 Lon: 134.23 Height: 28.1 m
Data from the previous 72 hours. | See also: Recent months at Maningrida Airport
Date/Time
CST
Temp

°C
Wind Pressure Rain
since 9am
mm
Weather Cloud Vis
km
Sea
Height
m
Swell
Dir
 
Speed
knots
Gust
knots
hPa Trend Height
m
Period
s
Dir
01/08:00am 27.4 W 5 7 1007.2 - 5.8 - - 10 - - - -
01/07:00am 24.9 CALM 0 0 1007.1 - 5.8 - - 10 - - - -
01/06:30am 24.5 CALM 0 0 1007.0 - 5.8 - - 10 - - - -
01/06:00am 24.5 CALM 0 0 1006.9 - 5.8 - - 10 - - - -
01/05:30am 24.7 CALM 0 0 1006.8 - 5.8 - Partly cloudy 10 - - - -
01/05:00am 24.8 SSE 2 5 1006.7 - 5.8 - - 10 - - - -
01/04:30am 24.8 CALM 0 0 1006.3 - 5.8 - - 10 - - - -
01/04:00am 25.0 CALM 0 0 1006.1 - 5.8 - - 10 - - - -
01/03:30am 25.0 SW 3 4 1006.0 - 5.8 - Partly cloudy 10 - - - -
01/03:00am 25.1 CALM 0 0 1006.3 - 5.8 - Cloudy 10 - - - -
01/02:30am 25.0 CALM 0 3 1006.4 - 5.8 - Cloudy 10 - - - -
01/02:00am 24.9 SW 4 6 1006.5 - 5.8 - Cloudy 10 - - - -
01/01:30am 25.1 SW 4 6 1006.9 - 5.8 - Cloudy 10 - - - -
01/01:00am 25.4 WSW 1 4 1007.1 - 5.8 - Cloudy 10 - - - -
01/12:30am 25.5 CALM 0 3 1007.2 - 5.8 - Partly cloudy 10 - - - -
01/12:00am 25.5 W 4 5 1007.6 - 5.8 - Partly cloudy 10 - - - -
 
Date/Time
CST
Temp

°C
Wind Pressure Rain
since 9am
mm
Weather Cloud Vis
km
Sea
Height
m
Swell
Dir
 
Speed
knots
Gust
knots
hPa Trend Height
m
Period
s
Dir
31/11:30pm 25.6 CALM 0 3 1008.3 - 5.8 - Partly cloudy 10 - - - -
31/11:00pm 25.5 WNW 4 6 1008.4 - 5.8 - Partly cloudy 10 - - - -
31/10:30pm 25.9 W 3 5 1008.7 - 5.8 - Partly cloudy 10 - - - -
31/10:00pm 26.0 NW 5 7 1008.4 - 5.8 - Partly cloudy 10 - - - -
31/09:30pm 25.8 NW 7 10 1008.0 - 5.8 - - 10 - - - -
31/09:00pm 25.4 WNW 2 5 1007.8 - 5.8 Showers Cloudy 10 - - - -
31/08:30pm 25.2 WSW 2 5 1008.0 - 5.6 - Partly cloudy 10 - - - -
31/08:00pm 25.3 NW 5 8 1007.4 - 4.6 - Partly cloudy 10 - - - -
31/07:30pm 25.2 ENE 2 5 1007.2 - 4.4 - Partly cloudy 10 - - - -
31/07:00pm 24.6 SSE 4 7 1007.3 - 4.2 - Partly cloudy 10 - - - -
31/06:38pm 24.6 SSE 8 11 1006.2 - 4.2 - Partly cloudy 10 - - - -
31/06:30pm 24.6 SSE 10 14 1006.2 - 4.0 - Partly cloudy 6 - - - -
31/06:06pm 25.2 SSE 15 23 1005.8 - 1.0 - Partly cloudy 5 - - - -
31/06:00pm 25.9 SSE 12 23 1006.0 - 0.4 Showers Cloudy 10 - - - -
31/05:30pm 29.7 WNW 9 13 1004.4 - 0.0 - Partly cloudy 10 - - - -
31/05:00pm 30.5 NW 10 17 1004.2 - 0.0 - - 10 - - - -
31/04:30pm 31.7 NNW 16 19 1003.9 - 0.0 - - 10 - - - -
31/04:00pm 31.7 NNW 15 19 1004.1 - 0.0 - Partly cloudy 10 - - - -
31/03:30pm 31.4 NNW 14 18 1004.0 - 0.0 - Partly cloudy 10 - - - -
31/03:00pm 32.0 NNW 13 19 1004.4 - 0.0 - Partly cloudy 10 - - - -
31/02:30pm 34.3 W 6 11 1004.9 - 0.0 - Partly cloudy 10 - - - -
31/02:00pm 34.3 WNW 7 12 1005.2 - 0.0 - - 10 - - - -
31/01:30pm 33.6 WNW 8 12 1005.5 - 0.0 - - 10 - - - -
31/01:00pm 33.5 W 8 12 1006.1 - 0.0 - Partly cloudy 10 - - - -
31/12:30pm 33.1 W 8 13 1006.7 - 0.0 - Partly cloudy 10 - - - -
31/12:00pm 32.8 WNW 9 15 1007.1 - 0.0 - Mostly clear 10 - - - -
31/11:30am 32.1 W 7 11 1007.3 - 0.0 - Partly cloudy 10 - - - -
31/11:00am 31.9 WNW 9 13 1007.4 - 0.0 - - 10 - - - -
31/10:30am 31.0 WNW 8 13 1007.5 - 0.0 - - 10 - - - -
31/10:00am 30.3 W 8 13 1007.6 - 0.0 - - 10 - - - -
31/09:30am 29.9 WSW 7 11 1007.8 - 0.0 - - 10 - - - -
31/09:00am 29.5 W 8 13 1007.9 - 0.0 - - 10 - - - -
31/08:30am 28.6 W 7 13 1007.9 - 0.0 - - 10 - - - -
31/08:00am 27.7 W 6 10 1007.7 - 0.0 - - 10 - - - -
31/07:30am 27.0 W 6 8 1007.6 - 0.0 - - 10 - - - -
31/07:00am 26.0 W 5 8 1007.4 - 0.0 - - 10 - - - -
31/06:30am 25.6 W 4 7 1006.9 - 0.0 - - 10 - - - -
31/06:00am 25.5 W 5 8 1006.8 - 0.0 - - 10 - - - -
31/05:30am 25.4 W 4 6 1006.6 - 0.0 - - 10 - - - -
31/05:00am 25.4 W 4 5 1006.3 - 0.0 - - 10 - - - -
31/04:30am 25.5 WNW 5 7 1006.5 - 0.0 - - 10 - - - -
31/04:00am 25.6 W 5 7 1006.2 - 0.0 - - 10 - - - -
31/03:30am 25.8 W 5 7 1006.4 - 0.0 - - 10 - - - -
31/03:00am 25.6 WSW 3 5 1006.4 - 0.0 - - 10 - - - -
31/02:30am 25.9 WNW 4 6 1006.6 - 0.0 - - 10 - - - -
31/02:00am 26.1 W 4 6 1006.9 - 0.0 - - 10 - - - -
31/01:30am 26.3 W 3 5 1007.4 - 0.0 - - 10 - - - -
31/01:00am 26.6 W 4 7 1007.6 - 0.0 - - 10 - - - -
31/12:30am 26.8 WSW 4 8 1008.0 - 0.0 - Partly cloudy 10 - - - -
31/12:00am 26.8 WSW 3 6 1008.3 - 0.0 - Mostly cloudy 10 - - - -
 
Date/Time
CST
Temp

°C
Wind Pressure Rain
since 9am
mm
Weather Cloud Vis
km
Sea
Height
m
Swell
Dir
 
Speed
knots
Gust
knots
hPa Trend Height
m
Period
s
Dir
30/11:30pm 26.7 W 4 5 1008.7 - 0.0 - - 10 - - - -
30/11:00pm 26.3 W 2 5 1008.9 - 0.0 - - 10 - - - -
30/10:30pm 26.6 W 3 4 1008.7 - 0.0 - - 10 - - - -
30/10:00pm 26.3 W 3 4 1008.6 - 0.0 - - 10 - - - -
30/09:30pm 26.3 WSW 4 5 1008.7 - 0.0 - - 10 - - - -
30/09:00pm 26.5 W 2 4 1008.3 - 0.0 - Cloudy 10 - - - -
30/08:30pm 26.9 CALM 0 2 1008.0 - 0.0 - - 10 - - - -
30/08:00pm 26.7 W 1 4 1007.3 - 0.0 - - 10 - - - -
30/07:30pm 26.7 W 1 4 1006.8 - 0.0 - - 10 - - - -
30/07:00pm 26.8 W 1 3 1006.6 - 0.0 - - 10 - - - -
30/06:30pm 26.7 W 2 4 1006.7 - 0.0 - - 10 - - - -
30/06:00pm 26.6 SSW 3 5 1006.2 - 0.0 - Cloudy 10 - - - -
30/05:30pm 26.8 S 4 6 1006.1 - 0.0 - - 10 - - - -
30/05:00pm 27.0 S 6 9 1005.7 - 0.0 - Partly cloudy 10 - - - -
30/04:30pm 28.6 WSW 5 8 1005.7 - 0.0 - Partly cloudy 10 - - - -
30/04:00pm 29.3 WNW 10 16 1005.0 - 0.0 - Partly cloudy 10 - - - -
30/03:30pm 29.4 NW 12 18 1004.3 - 0.0 - Partly cloudy 10 - - - -
30/03:00pm 30.7 NNW 17 21 1004.9 - 0.0 - Mostly cloudy 10 - - - -
30/02:30pm 30.6 NNW 17 22 1005.1 - 0.0 - Partly cloudy 10 - - - -
30/02:00pm 31.5 NNW 18 22 1005.2 - 0.0 - - 10 - - - -
30/01:30pm 31.1 N 17 22 1005.7 - 0.0 - - 10 - - - -
30/01:00pm 31.3 N 15 18 1006.3 - 0.0 - Partly cloudy 10 - - - -
30/12:30pm 31.2 NNW 15 21 1006.7 - 0.0 - - 10 - - - -
30/12:00pm 31.0 N 14 18 1007.3 - 0.0 - - 10 - - - -
30/11:30am 30.7 N 12 15 1007.5 - 0.0 - Partly cloudy 10 - - - -
30/11:00am 30.5 NNW 9 11 1007.5 - 0.0 - - 10 - - - -
30/10:30am 31.0 NW 6 10 1007.7 - 0.0 - - 10 - - - -
30/10:00am 30.3 WNW 6 9 1007.7 - 0.0 - - 10 - - - -
30/09:30am 29.7 WNW 6 10 1007.5 - 0.0 - - 10 - - - -
30/09:00am 29.1 WNW 7 9 1007.5 - 0.0 - - 10 - - - -
30/08:30am 28.5 W 5 10 1007.6 - 0.0 - - 10 - - - -
30/08:00am 27.4 W 5 8 1007.4 - 0.0 - - 10 - - - -
30/07:30am 27.2 WSW 5 9 1007.2 - 0.0 - - 10 - - - -
30/07:00am 26.2 WNW 3 5 1007.1 - 0.0 - - 10 - - - -
30/06:30am 25.7 WSW 3 5 1006.8 - 0.0 - - 10 - - - -
30/06:00am 26.0 WSW 3 5 1006.4 - 0.0 - Mostly cloudy 10 - - - -
30/05:30am 26.2 W 5 7 1006.3 - 0.0 - - 10 - - - -
30/05:00am 26.3 WSW 4 7 1006.1 - 0.0 - - 10 - - - -
30/04:30am 26.4 WSW 4 6 1005.5 - 0.0 - - 10 - - - -
30/04:00am 26.6 W 5 8 1005.6 - 0.0 - - 10 - - - -
30/03:30am 26.7 WSW 5 7 1005.6 - 0.0 - - 10 - - - -
30/03:00am 26.9 W 5 8 1005.7 - 0.0 - Partly cloudy 10 - - - -
30/02:30am 27.3 W 5 9 1005.9 - 0.0 - Partly cloudy 10 - - - -
30/02:00am 27.5 W 7 11 1005.9 - 0.0 - Partly cloudy 10 - - - -
30/01:30am 27.7 WNW 6 9 1006.4 - 0.0 - Partly cloudy 10 - - - -
30/01:00am 27.8 NW 7 9 1006.8 - 0.0 - Partly cloudy 10 - - - -
30/12:30am 27.9 NW 7 11 1007.2 - 0.0 - Partly cloudy 10 - - - -
30/12:00am 28.0 NW 8 11 1007.4 - 0.0 - Mostly cloudy 10 - - - -
 
Date/Time
CST
Temp

°C
Wind Pressure Rain
since 9am
mm
Weather Cloud Vis
km
Sea
Height
m
Swell
Dir
 
Speed
knots
Gust
knots
hPa Trend Height
m
Period
s
Dir
29/11:30pm 28.2 NW 9 13 1007.6 - 0.0 - Partly cloudy 10 - - - -
29/11:00pm 28.4 NNW 9 14 1007.5 - 0.0 - - 10 - - - -
29/10:30pm 28.5 NNW 10 15 1007.4 - 0.0 - - 10 - - - -
29/10:00pm 28.5 NNW 10 15 1007.2 - 0.0 - - 10 - - - -
29/09:30pm 28.6 NNW 10 13 1007.0 - 0.0 - Partly cloudy 10 - - - -
29/09:00pm 28.5 NNW 8 11 1006.5 - 0.0 - Cloudy 10 - - - -
29/08:30pm 28.4 NNW 9 12 1006.3 - 0.0 - - 10 - - - -
29/08:00pm 28.5 NNW 10 13 1006.2 - 0.0 - Partly cloudy 10 - - - -
29/07:30pm 28.7 NNW 12 15 1005.9 - 0.0 - Partly cloudy 10 - - - -
29/07:00pm 29.0 N 9 13 1005.6 - 0.0 - Partly cloudy 10 - - - -
29/06:30pm 29.1 N 9 11 1005.0 - 0.0 - - 10 - - - -
29/06:00pm 29.7 N 9 12 1004.7 - 0.0 - Partly cloudy 10 - - - -
29/05:30pm 29.7 N 11 14 1004.3 - 0.0 - Partly cloudy 10 - - - -
29/05:00pm 30.9 N 11 14 1003.9 - 0.0 - Partly cloudy 10 - - - -
29/04:30pm 31.9 N 7 9 1003.5 - 0.0 - - 10 - - - -
29/04:00pm 32.3 N 6 8 1003.2 - 0.0 - - 10 - - - -
29/03:30pm 32.3 NNW 5 7 1003.2 - 0.0 - - 10 - - - -
29/03:00pm 32.2 NNW 8 11 1003.3 - 0.0 - Mostly clear 10 - - - -
29/02:30pm 31.5 NNW 7 9 1003.7 - 0.0 - - 10 - - - -
29/02:00pm 31.9 WNW 5 7 1004.2 - 0.0 - - 10 - - - -
29/01:30pm 31.7 SW 5 8 1004.6 - 0.0 - - 10 - - - -
29/01:00pm 31.3 NW 4 6 1005.1 - 0.0 - - 10 - - - -
29/12:30pm 30.3 WSW 4 6 1005.6 - 0.0 - - 10 - - - -
29/12:00pm 29.5 N 3 5 1006.3 - 0.0 - Mostly cloudy 10 - - - -
29/11:30am 28.0 N 5 7 1006.8 - 0.0 - Cloudy 10 - - - -
29/11:00am 27.3 N 5 7 1007.1 - 0.0 - Cloudy 10 - - - -
29/10:30am 27.4 WNW 3 5 1006.9 - 0.0 - Cloudy 10 - - - -
29/10:00am 26.9 S 4 6 1006.6 - 0.0 - Cloudy 10 - - - -
29/09:30am 25.8 SSW 4 5 1006.6 - 0.0 - Cloudy 10 - - - -
29/09:00am 25.6 S 3 4 1006.3 - 55.6 - Mostly cloudy 10 - - - -
29/08:30am 25.5 SSE 5 6 1005.6 - 55.6 - Partly cloudy 10 - - - -

Other Formats:

Comma delimited format used in spreadsheet applications
http://www.bom.gov.au/fwo/IDD60701/IDD60701.95142.axf

JavaScript Object Notation format (JSON) in row-major order
http://www.bom.gov.au/fwo/IDD60701/IDD60701.95142.json